sensor_id;sensor_type;location;lat;lon;timestamp;P1;durP1;ratioP1;P2;durP2;ratioP2
13651;SDS011;6899;51.546;6.912;2022-11-25T00:00:09;10.20;;;2.97;;
13651;SDS011;6899;51.546;6.912;2022-11-25T00:02:41;14.18;;;3.15;;
13651;SDS011;6899;51.546;6.912;2022-11-25T00:05:08;15.80;;;3.22;;
13651;SDS011;6899;51.546;6.912;2022-11-25T00:07:35;12.05;;;3.80;;
13651;SDS011;6899;51.546;6.912;2022-11-25T00:10:03;9.48;;;2.92;;
13651;SDS011;6899;51.546;6.912;2022-11-25T00:12:31;8.82;;;3.28;;
13651;SDS011;6899;51.546;6.912;2022-11-25T00:14:57;11.32;;;3.75;;
13651;SDS011;6899;51.546;6.912;2022-11-25T00:17:26;11.30;;;2.92;;
13651;SDS011;6899;51.546;6.912;2022-11-25T00:19:52;10.77;;;3.05;;
13651;SDS011;6899;51.546;6.912;2022-11-25T00:22:19;15.15;;;3.70;;
13651;SDS011;6899;51.546;6.912;2022-11-25T00:24:51;12.45;;;2.95;;
13651;SDS011;6899;51.546;6.912;2022-11-25T00:27:18;13.88;;;3.53;;
13651;SDS011;6899;51.546;6.912;2022-11-25T00:29:45;14.27;;;3.83;;
13651;SDS011;6899;51.546;6.912;2022-11-25T00:32:12;13.07;;;3.40;;
13651;SDS011;6899;51.546;6.912;2022-11-25T00:34:40;20.48;;;3.35;;
13651;SDS011;6899;51.546;6.912;2022-11-25T00:37:07;14.43;;;3.55;;
13651;SDS011;6899;51.546;6.912;2022-11-25T00:39:34;15.60;;;3.05;;
13651;SDS011;6899;51.546;6.912;2022-11-25T00:42:01;9.27;;;2.70;;
13651;SDS011;6899;51.546;6.912;2022-11-25T00:44:48;14.93;;;2.88;;
13651;SDS011;6899;51.546;6.912;2022-11-25T00:47:16;14.73;;;3.30;;
13651;SDS011;6899;51.546;6.912;2022-11-25T00:49:46;10.52;;;3.28;;
13651;SDS011;6899;51.546;6.912;2022-11-25T00:52:17;8.73;;;2.88;;
13651;SDS011;6899;51.546;6.912;2022-11-25T00:54:45;14.57;;;3.60;;
13651;SDS011;6899;51.546;6.912;2022-11-25T00:57:13;10.27;;;3.30;;
13651;SDS011;6899;51.546;6.912;2022-11-25T00:59:40;11.57;;;3.30;;
13651;SDS011;6899;51.546;6.912;2022-11-25T01:02:08;17.17;;;4.22;;
13651;SDS011;6899;51.546;6.912;2022-11-25T01:04:36;16.02;;;3.78;;
13651;SDS011;6899;51.546;6.912;2022-11-25T01:07:04;8.80;;;2.88;;
13651;SDS011;6899;51.546;6.912;2022-11-25T01:09:31;13.70;;;3.15;;
13651;SDS011;6899;51.546;6.912;2022-11-25T01:11:58;11.35;;;2.75;;
13651;SDS011;6899;51.546;6.912;2022-11-25T01:14:25;15.23;;;3.10;;
13651;SDS011;6899;51.546;6.912;2022-11-25T01:16:52;9.65;;;2.70;;
13651;SDS011;6899;51.546;6.912;2022-11-25T01:19:19;9.48;;;3.00;;
13651;SDS011;6899;51.546;6.912;2022-11-25T01:21:46;11.05;;;2.70;;
13651;SDS011;6899;51.546;6.912;2022-11-25T01:24:15;13.52;;;2.97;;
13651;SDS011;6899;51.546;6.912;2022-11-25T01:26:42;11.10;;;3.25;;
13651;SDS011;6899;51.546;6.912;2022-11-25T01:29:11;13.75;;;3.25;;
13651;SDS011;6899;51.546;6.912;2022-11-25T01:31:40;7.85;;;3.03;;
13651;SDS011;6899;51.546;6.912;2022-11-25T01:34:10;12.23;;;3.33;;
13651;SDS011;6899;51.546;6.912;2022-11-25T01:36:38;18.83;;;3.80;;
13651;SDS011;6899;51.546;6.912;2022-11-25T01:39:06;12.23;;;3.50;;
13651;SDS011;6899;51.546;6.912;2022-11-25T01:41:34;18.63;;;3.78;;
13651;SDS011;6899;51.546;6.912;2022-11-25T01:44:05;8.88;;;3.38;;
13651;SDS011;6899;51.546;6.912;2022-11-25T01:46:44;9.70;;;2.95;;
13651;SDS011;6899;51.546;6.912;2022-11-25T01:49:23;10.55;;;3.00;;
13651;SDS011;6899;51.546;6.912;2022-11-25T01:51:56;11.02;;;3.13;;
13651;SDS011;6899;51.546;6.912;2022-11-25T01:54:28;8.27;;;2.72;;
13651;SDS011;6899;51.546;6.912;2022-11-25T01:57:04;10.68;;;3.30;;
13651;SDS011;6899;51.546;6.912;2022-11-25T01:59:34;12.18;;;3.13;;
13651;SDS011;6899;51.546;6.912;2022-11-25T02:02:05;14.80;;;3.40;;
13651;SDS011;6899;51.546;6.912;2022-11-25T02:04:33;10.95;;;3.42;;
13651;SDS011;6899;51.546;6.912;2022-11-25T02:07:05;11.80;;;3.63;;
13651;SDS011;6899;51.546;6.912;2022-11-25T02:09:36;10.57;;;2.95;;
13651;SDS011;6899;51.546;6.912;2022-11-25T02:12:07;7.03;;;2.85;;
13651;SDS011;6899;51.546;6.912;2022-11-25T02:14:35;10.55;;;3.20;;
13651;SDS011;6899;51.546;6.912;2022-11-25T02:17:02;13.15;;;2.95;;
13651;SDS011;6899;51.546;6.912;2022-11-25T02:19:31;12.55;;;3.45;;
13651;SDS011;6899;51.546;6.912;2022-11-25T02:22:14;10.30;;;3.15;;
13651;SDS011;6899;51.546;6.912;2022-11-25T02:24:49;10.85;;;3.25;;
13651;SDS011;6899;51.546;6.912;2022-11-25T02:27:21;13.88;;;3.38;;
13651;SDS011;6899;51.546;6.912;2022-11-25T02:29:48;9.27;;;3.15;;
13651;SDS011;6899;51.546;6.912;2022-11-25T02:32:19;8.30;;;2.50;;
13651;SDS011;6899;51.546;6.912;2022-11-25T02:34:47;11.35;;;2.80;;
13651;SDS011;6899;51.546;6.912;2022-11-25T02:37:14;12.90;;;3.13;;
13651;SDS011;6899;51.546;6.912;2022-11-25T02:39:47;11.00;;;3.22;;
13651;SDS011;6899;51.546;6.912;2022-11-25T02:42:15;12.27;;;3.47;;
13651;SDS011;6899;51.546;6.912;2022-11-25T02:44:47;11.25;;;3.28;;
13651;SDS011;6899;51.546;6.912;2022-11-25T02:47:14;13.27;;;3.42;;
13651;SDS011;6899;51.546;6.912;2022-11-25T02:49:42;9.00;;;3.00;;
13651;SDS011;6899;51.546;6.912;2022-11-25T02:52:09;12.15;;;3.40;;
13651;SDS011;6899;51.546;6.912;2022-11-25T02:54:36;11.65;;;3.65;;
13651;SDS011;6899;51.546;6.912;2022-11-25T02:57:03;9.98;;;3.08;;
13651;SDS011;6899;51.546;6.912;2022-11-25T02:59:30;14.43;;;3.90;;
13651;SDS011;6899;51.546;6.912;2022-11-25T03:01:58;12.98;;;4.13;;
13651;SDS011;6899;51.546;6.912;2022-11-25T03:04:25;12.38;;;3.70;;
13651;SDS011;6899;51.546;6.912;2022-11-25T03:06:52;15.65;;;3.17;;
13651;SDS011;6899;51.546;6.912;2022-11-25T03:09:19;11.88;;;3.28;;
13651;SDS011;6899;51.546;6.912;2022-11-25T03:11:46;11.90;;;3.28;;
13651;SDS011;6899;51.546;6.912;2022-11-25T03:14:30;14.25;;;3.58;;
13651;SDS011;6899;51.546;6.912;2022-11-25T03:16:58;10.48;;;2.92;;
13651;SDS011;6899;51.546;6.912;2022-11-25T03:19:25;12.70;;;3.58;;
13651;SDS011;6899;51.546;6.912;2022-11-25T03:21:52;8.80;;;2.90;;
13651;SDS011;6899;51.546;6.912;2022-11-25T03:24:19;11.60;;;3.15;;
13651;SDS011;6899;51.546;6.912;2022-11-25T03:26:46;11.40;;;3.55;;
13651;SDS011;6899;51.546;6.912;2022-11-25T03:29:13;10.10;;;3.03;;
13651;SDS011;6899;51.546;6.912;2022-11-25T03:31:39;9.93;;;2.97;;
13651;SDS011;6899;51.546;6.912;2022-11-25T03:34:08;10.55;;;3.50;;
13651;SDS011;6899;51.546;6.912;2022-11-25T03:36:37;7.93;;;4.05;;
13651;SDS011;6899;51.546;6.912;2022-11-25T03:39:04;9.13;;;3.42;;
13651;SDS011;6899;51.546;6.912;2022-11-25T03:41:31;13.23;;;3.83;;
13651;SDS011;6899;51.546;6.912;2022-11-25T03:43:58;9.90;;;3.35;;
13651;SDS011;6899;51.546;6.912;2022-11-25T03:46:31;8.90;;;2.80;;
13651;SDS011;6899;51.546;6.912;2022-11-25T03:48:58;10.48;;;3.15;;
13651;SDS011;6899;51.546;6.912;2022-11-25T03:51:29;12.95;;;3.85;;
13651;SDS011;6899;51.546;6.912;2022-11-25T03:53:56;12.90;;;3.67;;
13651;SDS011;6899;51.546;6.912;2022-11-25T03:56:23;11.57;;;4.00;;
13651;SDS011;6899;51.546;6.912;2022-11-25T03:58:50;13.63;;;3.55;;
13651;SDS011;6899;51.546;6.912;2022-11-25T04:01:17;10.80;;;3.00;;
13651;SDS011;6899;51.546;6.912;2022-11-25T04:03:44;11.40;;;3.70;;
13651;SDS011;6899;51.546;6.912;2022-11-25T04:06:11;11.85;;;3.42;;
13651;SDS011;6899;51.546;6.912;2022-11-25T04:08:39;11.73;;;4.18;;
13651;SDS011;6899;51.546;6.912;2022-11-25T04:11:06;12.52;;;4.18;;
13651;SDS011;6899;51.546;6.912;2022-11-25T04:13:36;15.68;;;4.13;;
13651;SDS011;6899;51.546;6.912;2022-11-25T04:16:02;7.75;;;3.55;;
13651;SDS011;6899;51.546;6.912;2022-11-25T04:18:29;12.65;;;3.90;;
13651;SDS011;6899;51.546;6.912;2022-11-25T04:20:56;11.40;;;3.30;;
13651;SDS011;6899;51.546;6.912;2022-11-25T04:23:23;15.02;;;4.20;;
13651;SDS011;6899;51.546;6.912;2022-11-25T04:25:57;12.00;;;3.83;;
13651;SDS011;6899;51.546;6.912;2022-11-25T04:28:24;15.68;;;3.50;;
13651;SDS011;6899;51.546;6.912;2022-11-25T04:30:51;9.52;;;3.85;;
13651;SDS011;6899;51.546;6.912;2022-11-25T04:33:18;15.70;;;3.70;;
13651;SDS011;6899;51.546;6.912;2022-11-25T04:35:45;14.98;;;4.35;;
13651;SDS011;6899;51.546;6.912;2022-11-25T04:38:12;16.33;;;3.53;;
13651;SDS011;6899;51.546;6.912;2022-11-25T04:40:39;10.52;;;4.10;;
13651;SDS011;6899;51.546;6.912;2022-11-25T04:43:07;17.60;;;4.05;;
13651;SDS011;6899;51.546;6.912;2022-11-25T04:45:35;13.40;;;3.80;;
13651;SDS011;6899;51.546;6.912;2022-11-25T04:48:02;15.15;;;4.30;;
13651;SDS011;6899;51.546;6.912;2022-11-25T04:50:29;16.52;;;3.80;;
13651;SDS011;6899;51.546;6.912;2022-11-25T04:52:59;14.80;;;3.70;;
13651;SDS011;6899;51.546;6.912;2022-11-25T04:55:29;16.08;;;4.55;;
13651;SDS011;6899;51.546;6.912;2022-11-25T04:57:59;10.70;;;4.18;;
13651;SDS011;6899;51.546;6.912;2022-11-25T05:00:27;8.35;;;3.75;;
13651;SDS011;6899;51.546;6.912;2022-11-25T05:02:54;9.93;;;3.90;;
13651;SDS011;6899;51.546;6.912;2022-11-25T05:05:21;16.15;;;5.00;;
13651;SDS011;6899;51.546;6.912;2022-11-25T05:07:48;9.57;;;4.07;;
13651;SDS011;6899;51.546;6.912;2022-11-25T05:10:15;18.13;;;4.40;;
13651;SDS011;6899;51.546;6.912;2022-11-25T05:12:42;19.70;;;5.07;;
13651;SDS011;6899;51.546;6.912;2022-11-25T05:15:09;19.88;;;5.28;;
13651;SDS011;6899;51.546;6.912;2022-11-25T05:17:38;13.20;;;4.13;;
13651;SDS011;6899;51.546;6.912;2022-11-25T05:20:06;14.20;;;5.05;;
13651;SDS011;6899;51.546;6.912;2022-11-25T05:22:33;12.02;;;4.53;;
13651;SDS011;6899;51.546;6.912;2022-11-25T05:25:00;12.35;;;4.07;;
13651;SDS011;6899;51.546;6.912;2022-11-25T05:27:29;13.02;;;4.85;;
13651;SDS011;6899;51.546;6.912;2022-11-25T05:29:56;16.38;;;5.03;;
13651;SDS011;6899;51.546;6.912;2022-11-25T05:32:23;15.77;;;4.47;;
13651;SDS011;6899;51.546;6.912;2022-11-25T05:34:51;13.27;;;4.88;;
13651;SDS011;6899;51.546;6.912;2022-11-25T05:37:18;14.23;;;5.43;;
13651;SDS011;6899;51.546;6.912;2022-11-25T05:39:45;15.68;;;4.97;;
13651;SDS011;6899;51.546;6.912;2022-11-25T05:42:12;15.57;;;4.88;;
13651;SDS011;6899;51.546;6.912;2022-11-25T05:44:39;15.65;;;5.13;;
13651;SDS011;6899;51.546;6.912;2022-11-25T05:47:14;18.42;;;5.40;;
13651;SDS011;6899;51.546;6.912;2022-11-25T05:49:41;13.68;;;5.55;;
13651;SDS011;6899;51.546;6.912;2022-11-25T05:52:10;19.25;;;5.57;;
13651;SDS011;6899;51.546;6.912;2022-11-25T05:54:36;17.13;;;5.68;;
13651;SDS011;6899;51.546;6.912;2022-11-25T05:57:03;14.73;;;5.00;;
13651;SDS011;6899;51.546;6.912;2022-11-25T05:59:30;17.17;;;4.75;;
13651;SDS011;6899;51.546;6.912;2022-11-25T06:01:57;12.27;;;5.20;;
13651;SDS011;6899;51.546;6.912;2022-11-25T06:04:24;15.93;;;5.88;;
13651;SDS011;6899;51.546;6.912;2022-11-25T06:06:51;18.30;;;5.68;;
13651;SDS011;6899;51.546;6.912;2022-11-25T06:09:19;16.60;;;5.38;;
13651;SDS011;6899;51.546;6.912;2022-11-25T06:11:49;16.60;;;5.70;;
13651;SDS011;6899;51.546;6.912;2022-11-25T06:14:16;17.50;;;6.32;;
13651;SDS011;6899;51.546;6.912;2022-11-25T06:16:43;15.65;;;5.85;;
13651;SDS011;6899;51.546;6.912;2022-11-25T06:19:10;22.88;;;6.32;;
13651;SDS011;6899;51.546;6.912;2022-11-25T06:21:37;12.90;;;5.50;;
13651;SDS011;6899;51.546;6.912;2022-11-25T06:24:04;19.02;;;5.85;;
13651;SDS011;6899;51.546;6.912;2022-11-25T06:26:33;15.68;;;5.93;;
13651;SDS011;6899;51.546;6.912;2022-11-25T06:28:59;14.88;;;5.85;;
13651;SDS011;6899;51.546;6.912;2022-11-25T06:31:26;14.32;;;5.68;;
13651;SDS011;6899;51.546;6.912;2022-11-25T06:33:53;17.10;;;6.00;;
13651;SDS011;6899;51.546;6.912;2022-11-25T06:36:20;15.20;;;5.55;;
13651;SDS011;6899;51.546;6.912;2022-11-25T06:38:49;17.90;;;6.88;;
13651;SDS011;6899;51.546;6.912;2022-11-25T06:41:17;21.80;;;6.45;;
13651;SDS011;6899;51.546;6.912;2022-11-25T06:43:46;14.38;;;5.97;;
13651;SDS011;6899;51.546;6.912;2022-11-25T06:46:14;11.73;;;5.60;;
13651;SDS011;6899;51.546;6.912;2022-11-25T06:48:43;11.68;;;6.00;;
13651;SDS011;6899;51.546;6.912;2022-11-25T06:51:10;14.85;;;5.63;;
13651;SDS011;6899;51.546;6.912;2022-11-25T06:53:39;15.35;;;5.60;;
13651;SDS011;6899;51.546;6.912;2022-11-25T06:56:07;23.17;;;7.10;;
13651;SDS011;6899;51.546;6.912;2022-11-25T06:58:36;19.05;;;5.95;;
13651;SDS011;6899;51.546;6.912;2022-11-25T07:01:05;19.48;;;6.60;;
13651;SDS011;6899;51.546;6.912;2022-11-25T07:03:36;18.58;;;6.63;;
13651;SDS011;6899;51.546;6.912;2022-11-25T07:06:06;17.98;;;7.47;;
13651;SDS011;6899;51.546;6.912;2022-11-25T07:08:34;22.13;;;7.53;;
13651;SDS011;6899;51.546;6.912;2022-11-25T07:11:02;17.52;;;6.55;;
13651;SDS011;6899;51.546;6.912;2022-11-25T07:13:29;20.77;;;6.82;;
13651;SDS011;6899;51.546;6.912;2022-11-25T07:15:58;21.95;;;7.30;;
13651;SDS011;6899;51.546;6.912;2022-11-25T07:18:32;22.85;;;8.13;;
13651;SDS011;6899;51.546;6.912;2022-11-25T07:21:03;20.77;;;7.53;;
13651;SDS011;6899;51.546;6.912;2022-11-25T07:23:31;20.95;;;7.38;;
13651;SDS011;6899;51.546;6.912;2022-11-25T07:26:02;18.95;;;7.38;;
13651;SDS011;6899;51.546;6.912;2022-11-25T07:28:30;16.92;;;7.53;;
13651;SDS011;6899;51.546;6.912;2022-11-25T07:31:02;17.75;;;7.45;;
13651;SDS011;6899;51.546;6.912;2022-11-25T07:33:32;19.83;;;7.50;;
13651;SDS011;6899;51.546;6.912;2022-11-25T07:36:00;17.08;;;7.20;;
13651;SDS011;6899;51.546;6.912;2022-11-25T07:38:28;22.38;;;7.30;;
13651;SDS011;6899;51.546;6.912;2022-11-25T07:40:55;18.10;;;7.07;;
13651;SDS011;6899;51.546;6.912;2022-11-25T07:43:28;16.23;;;6.93;;
13651;SDS011;6899;51.546;6.912;2022-11-25T07:45:54;27.42;;;12.05;;
13651;SDS011;6899;51.546;6.912;2022-11-25T07:48:21;21.63;;;8.35;;
13651;SDS011;6899;51.546;6.912;2022-11-25T07:50:49;23.17;;;8.98;;
13651;SDS011;6899;51.546;6.912;2022-11-25T07:53:16;23.05;;;7.78;;
13651;SDS011;6899;51.546;6.912;2022-11-25T07:55:43;24.10;;;7.80;;
13651;SDS011;6899;51.546;6.912;2022-11-25T07:58:10;28.58;;;7.93;;
13651;SDS011;6899;51.546;6.912;2022-11-25T08:00:37;22.25;;;8.52;;
13651;SDS011;6899;51.546;6.912;2022-11-25T08:03:03;17.10;;;7.20;;
13651;SDS011;6899;51.546;6.912;2022-11-25T08:05:31;20.67;;;8.50;;
13651;SDS011;6899;51.546;6.912;2022-11-25T08:08:00;21.05;;;8.13;;
13651;SDS011;6899;51.546;6.912;2022-11-25T08:10:45;26.73;;;8.80;;
13651;SDS011;6899;51.546;6.912;2022-11-25T08:13:12;21.52;;;8.70;;
13651;SDS011;6899;51.546;6.912;2022-11-25T08:15:38;17.88;;;9.25;;
13651;SDS011;6899;51.546;6.912;2022-11-25T08:18:05;23.63;;;10.25;;
13651;SDS011;6899;51.546;6.912;2022-11-25T08:20:32;26.15;;;10.77;;
13651;SDS011;6899;51.546;6.912;2022-11-25T08:23:00;20.63;;;9.23;;
13651;SDS011;6899;51.546;6.912;2022-11-25T08:25:27;22.42;;;8.45;;
13651;SDS011;6899;51.546;6.912;2022-11-25T08:27:59;23.33;;;9.55;;
13651;SDS011;6899;51.546;6.912;2022-11-25T08:30:26;22.25;;;8.25;;
13651;SDS011;6899;51.546;6.912;2022-11-25T08:32:53;23.13;;;7.80;;
13651;SDS011;6899;51.546;6.912;2022-11-25T08:35:19;19.42;;;7.90;;
13651;SDS011;6899;51.546;6.912;2022-11-25T08:37:46;19.05;;;8.13;;
13651;SDS011;6899;51.546;6.912;2022-11-25T08:40:15;19.15;;;7.57;;
13651;SDS011;6899;51.546;6.912;2022-11-25T08:42:42;20.15;;;8.65;;
13651;SDS011;6899;51.546;6.912;2022-11-25T08:45:09;25.45;;;8.48;;
13651;SDS011;6899;51.546;6.912;2022-11-25T08:47:39;23.63;;;7.93;;
13651;SDS011;6899;51.546;6.912;2022-11-25T08:50:07;20.33;;;8.18;;
13651;SDS011;6899;51.546;6.912;2022-11-25T08:52:35;17.55;;;7.30;;
13651;SDS011;6899;51.546;6.912;2022-11-25T08:55:02;17.45;;;7.25;;
13651;SDS011;6899;51.546;6.912;2022-11-25T08:57:31;17.35;;;7.57;;
13651;SDS011;6899;51.546;6.912;2022-11-25T08:59:58;17.45;;;7.15;;
13651;SDS011;6899;51.546;6.912;2022-11-25T09:02:31;23.23;;;8.50;;
13651;SDS011;6899;51.546;6.912;2022-11-25T09:04:59;20.00;;;7.40;;
13651;SDS011;6899;51.546;6.912;2022-11-25T09:07:26;18.33;;;7.88;;
13651;SDS011;6899;51.546;6.912;2022-11-25T09:09:52;21.88;;;8.38;;
13651;SDS011;6899;51.546;6.912;2022-11-25T09:12:19;21.52;;;7.95;;
13651;SDS011;6899;51.546;6.912;2022-11-25T09:14:47;18.27;;;7.53;;
13651;SDS011;6899;51.546;6.912;2022-11-25T09:17:14;17.63;;;8.13;;
13651;SDS011;6899;51.546;6.912;2022-11-25T09:19:41;17.85;;;8.15;;
13651;SDS011;6899;51.546;6.912;2022-11-25T09:22:17;18.23;;;7.28;;
13651;SDS011;6899;51.546;6.912;2022-11-25T09:24:44;22.27;;;8.43;;
13651;SDS011;6899;51.546;6.912;2022-11-25T09:27:11;14.98;;;7.07;;
13651;SDS011;6899;51.546;6.912;2022-11-25T09:29:37;20.50;;;6.95;;
13651;SDS011;6899;51.546;6.912;2022-11-25T09:32:06;17.98;;;6.88;;
13651;SDS011;6899;51.546;6.912;2022-11-25T09:34:33;14.50;;;5.93;;
13651;SDS011;6899;51.546;6.912;2022-11-25T09:37:00;15.70;;;6.22;;
13651;SDS011;6899;51.546;6.912;2022-11-25T09:39:27;22.30;;;6.80;;
13651;SDS011;6899;51.546;6.912;2022-11-25T09:42:03;20.17;;;6.05;;
13651;SDS011;6899;51.546;6.912;2022-11-25T09:45:02;19.83;;;6.30;;
13651;SDS011;6899;51.546;6.912;2022-11-25T09:47:59;13.60;;;6.55;;
13651;SDS011;6899;51.546;6.912;2022-11-25T09:50:39;15.27;;;5.20;;
13651;SDS011;6899;51.546;6.912;2022-11-25T09:53:17;12.70;;;5.93;;
13651;SDS011;6899;51.546;6.912;2022-11-25T09:55:57;15.13;;;5.78;;
13651;SDS011;6899;51.546;6.912;2022-11-25T09:58:29;11.32;;;5.22;;
13651;SDS011;6899;51.546;6.912;2022-11-25T10:00:59;17.77;;;5.97;;
13651;SDS011;6899;51.546;6.912;2022-11-25T10:03:33;10.57;;;5.05;;
13651;SDS011;6899;51.546;6.912;2022-11-25T10:06:05;18.52;;;5.28;;
13651;SDS011;6899;51.546;6.912;2022-11-25T10:08:39;11.55;;;6.13;;
13651;SDS011;6899;51.546;6.912;2022-11-25T10:11:13;18.75;;;5.72;;
13651;SDS011;6899;51.546;6.912;2022-11-25T10:13:48;12.50;;;5.22;;
13651;SDS011;6899;51.546;6.912;2022-11-25T10:16:25;16.30;;;7.80;;
13651;SDS011;6899;51.546;6.912;2022-11-25T10:19:02;10.77;;;5.57;;
13651;SDS011;6899;51.546;6.912;2022-11-25T10:21:37;15.48;;;5.90;;
13651;SDS011;6899;51.546;6.912;2022-11-25T10:24:04;18.48;;;5.68;;
13651;SDS011;6899;51.546;6.912;2022-11-25T10:26:37;11.02;;;5.53;;
13651;SDS011;6899;51.546;6.912;2022-11-25T10:29:15;12.77;;;5.72;;
13651;SDS011;6899;51.546;6.912;2022-11-25T10:31:48;17.73;;;6.63;;
13651;SDS011;6899;51.546;6.912;2022-11-25T10:34:22;14.25;;;6.28;;
13651;SDS011;6899;51.546;6.912;2022-11-25T10:36:55;14.88;;;6.03;;
13651;SDS011;6899;51.546;6.912;2022-11-25T10:39:25;15.23;;;5.10;;
13651;SDS011;6899;51.546;6.912;2022-11-25T10:41:57;11.55;;;5.38;;
13651;SDS011;6899;51.546;6.912;2022-11-25T10:44:29;16.15;;;5.88;;
13651;SDS011;6899;51.546;6.912;2022-11-25T10:47:01;10.63;;;4.97;;
13651;SDS011;6899;51.546;6.912;2022-11-25T10:49:46;9.73;;;5.00;;
13651;SDS011;6899;51.546;6.912;2022-11-25T10:52:21;7.72;;;4.28;;
13651;SDS011;6899;51.546;6.912;2022-11-25T10:54:54;12.55;;;4.53;;
13651;SDS011;6899;51.546;6.912;2022-11-25T10:57:24;12.60;;;5.50;;
13651;SDS011;6899;51.546;6.912;2022-11-25T10:59:54;13.88;;;4.68;;
13651;SDS011;6899;51.546;6.912;2022-11-25T11:02:23;11.20;;;4.63;;
13651;SDS011;6899;51.546;6.912;2022-11-25T11:04:59;10.45;;;4.47;;
13651;SDS011;6899;51.546;6.912;2022-11-25T11:07:29;12.50;;;4.30;;
13651;SDS011;6899;51.546;6.912;2022-11-25T11:10:15;10.63;;;4.50;;
13651;SDS011;6899;51.546;6.912;2022-11-25T11:12:53;10.57;;;4.93;;
13651;SDS011;6899;51.546;6.912;2022-11-25T11:15:23;13.55;;;4.72;;
13651;SDS011;6899;51.546;6.912;2022-11-25T11:17:51;10.02;;;4.07;;
13651;SDS011;6899;51.546;6.912;2022-11-25T11:20:22;13.25;;;4.47;;
13651;SDS011;6899;51.546;6.912;2022-11-25T11:22:57;12.15;;;4.88;;
13651;SDS011;6899;51.546;6.912;2022-11-25T11:25:31;16.48;;;4.80;;
13651;SDS011;6899;51.546;6.912;2022-11-25T11:30:52;8.95;;;4.03;;
13651;SDS011;6899;51.546;6.912;2022-11-25T11:33:32;13.10;;;3.78;;
13651;SDS011;6899;51.546;6.912;2022-11-25T11:36:09;13.90;;;3.97;;
13651;SDS011;6899;51.546;6.912;2022-11-25T11:38:52;9.45;;;3.92;;
13651;SDS011;6899;51.546;6.912;2022-11-25T11:41:25;10.60;;;3.72;;
13651;SDS011;6899;51.546;6.912;2022-11-25T11:44:13;8.20;;;3.40;;
13651;SDS011;6899;51.546;6.912;2022-11-25T11:46:52;10.52;;;3.75;;
13651;SDS011;6899;51.546;6.912;2022-11-25T11:49:34;12.32;;;4.38;;
13651;SDS011;6899;51.546;6.912;2022-11-25T11:52:18;12.82;;;3.67;;
13651;SDS011;6899;51.546;6.912;2022-11-25T11:54:51;9.73;;;3.67;;
13651;SDS011;6899;51.546;6.912;2022-11-25T11:57:25;10.65;;;3.88;;
13651;SDS011;6899;51.546;6.912;2022-11-25T12:00:00;10.25;;;4.38;;
13651;SDS011;6899;51.546;6.912;2022-11-25T12:02:34;14.52;;;4.22;;
13651;SDS011;6899;51.546;6.912;2022-11-25T12:05:17;10.27;;;3.60;;
13651;SDS011;6899;51.546;6.912;2022-11-25T12:07:52;7.93;;;3.17;;
13651;SDS011;6899;51.546;6.912;2022-11-25T12:10:29;11.32;;;3.58;;
13651;SDS011;6899;51.546;6.912;2022-11-25T12:13:01;10.07;;;3.55;;
13651;SDS011;6899;51.546;6.912;2022-11-25T12:15:38;12.43;;;4.00;;
13651;SDS011;6899;51.546;6.912;2022-11-25T12:18:13;11.32;;;3.72;;
13651;SDS011;6899;51.546;6.912;2022-11-25T12:20:47;13.50;;;3.50;;
13651;SDS011;6899;51.546;6.912;2022-11-25T12:23:27;6.93;;;3.50;;
13651;SDS011;6899;51.546;6.912;2022-11-25T12:26:04;12.07;;;3.50;;
13651;SDS011;6899;51.546;6.912;2022-11-25T12:28:36;12.32;;;3.58;;
13651;SDS011;6899;51.546;6.912;2022-11-25T12:31:10;9.32;;;3.58;;
13651;SDS011;6899;51.546;6.912;2022-11-25T12:33:48;9.18;;;3.33;;
13651;SDS011;6899;51.546;6.912;2022-11-25T12:36:21;12.98;;;4.10;;
13651;SDS011;6899;51.546;6.912;2022-11-25T12:38:59;10.45;;;3.25;;
13651;SDS011;6899;51.546;6.912;2022-11-25T12:41:34;12.98;;;3.95;;
13651;SDS011;6899;51.546;6.912;2022-11-25T12:44:07;7.82;;;3.30;;
13651;SDS011;6899;51.546;6.912;2022-11-25T12:46:43;6.45;;;3.03;;
13651;SDS011;6899;51.546;6.912;2022-11-25T12:49:14;13.48;;;4.07;;
13651;SDS011;6899;51.546;6.912;2022-11-25T12:51:46;9.27;;;3.53;;
13651;SDS011;6899;51.546;6.912;2022-11-25T12:54:26;8.23;;;3.15;;
13651;SDS011;6899;51.546;6.912;2022-11-25T12:57:17;7.50;;;2.75;;
13651;SDS011;6899;51.546;6.912;2022-11-25T13:00:18;8.85;;;3.10;;
13651;SDS011;6899;51.546;6.912;2022-11-25T13:05:53;8.23;;;3.03;;
13651;SDS011;6899;51.546;6.912;2022-11-25T13:08:50;8.07;;;2.80;;
13651;SDS011;6899;51.546;6.912;2022-11-25T13:11:31;8.43;;;3.55;;
13651;SDS011;6899;51.546;6.912;2022-11-25T13:14:16;14.77;;;3.45;;
13651;SDS011;6899;51.546;6.912;2022-11-25T13:16:49;10.63;;;3.35;;
13651;SDS011;6899;51.546;6.912;2022-11-25T13:19:17;12.77;;;3.67;;
13651;SDS011;6899;51.546;6.912;2022-11-25T13:21:55;8.50;;;3.10;;
13651;SDS011;6899;51.546;6.912;2022-11-25T13:24:27;9.95;;;4.13;;
13651;SDS011;6899;51.546;6.912;2022-11-25T13:27:08;9.32;;;3.78;;
13651;SDS011;6899;51.546;6.912;2022-11-25T13:29:55;16.45;;;4.20;;
13651;SDS011;6899;51.546;6.912;2022-11-25T13:32:24;15.77;;;5.72;;
13651;SDS011;6899;51.546;6.912;2022-11-25T13:38:33;10.77;;;3.53;;
13651;SDS011;6899;51.546;6.912;2022-11-25T13:41:22;10.45;;;3.72;;
13651;SDS011;6899;51.546;6.912;2022-11-25T13:44:02;9.07;;;3.28;;
13651;SDS011;6899;51.546;6.912;2022-11-25T13:46:34;13.23;;;4.07;;
13651;SDS011;6899;51.546;6.912;2022-11-25T13:49:05;7.18;;;3.20;;
13651;SDS011;6899;51.546;6.912;2022-11-25T13:51:47;11.98;;;3.72;;
13651;SDS011;6899;51.546;6.912;2022-11-25T13:54:16;9.40;;;3.60;;
13651;SDS011;6899;51.546;6.912;2022-11-25T13:56:56;10.20;;;3.60;;
13651;SDS011;6899;51.546;6.912;2022-11-25T13:59:34;14.57;;;4.30;;
13651;SDS011;6899;51.546;6.912;2022-11-25T14:02:28;10.60;;;3.60;;
13651;SDS011;6899;51.546;6.912;2022-11-25T14:08:19;8.40;;;3.85;;
13651;SDS011;6899;51.546;6.912;2022-11-25T14:10:55;16.42;;;4.68;;
13651;SDS011;6899;51.546;6.912;2022-11-25T14:14:00;12.68;;;3.55;;
13651;SDS011;6899;51.546;6.912;2022-11-25T14:16:41;9.98;;;4.15;;
13651;SDS011;6899;51.546;6.912;2022-11-25T14:19:32;9.25;;;3.55;;
13651;SDS011;6899;51.546;6.912;2022-11-25T14:22:33;16.67;;;3.80;;
13651;SDS011;6899;51.546;6.912;2022-11-25T14:25:20;11.15;;;4.00;;
13651;SDS011;6899;51.546;6.912;2022-11-25T14:27:51;9.18;;;3.78;;
13651;SDS011;6899;51.546;6.912;2022-11-25T14:30:27;10.63;;;4.07;;
13651;SDS011;6899;51.546;6.912;2022-11-25T14:32:57;10.77;;;3.55;;
13651;SDS011;6899;51.546;6.912;2022-11-25T14:35:35;14.38;;;4.13;;
13651;SDS011;6899;51.546;6.912;2022-11-25T14:38:06;11.75;;;3.08;;
13651;SDS011;6899;51.546;6.912;2022-11-25T14:40:37;10.60;;;3.97;;
13651;SDS011;6899;51.546;6.912;2022-11-25T14:43:11;11.07;;;3.70;;
13651;SDS011;6899;51.546;6.912;2022-11-25T14:45:40;11.95;;;3.85;;
13651;SDS011;6899;51.546;6.912;2022-11-25T14:48:12;10.10;;;5.05;;
13651;SDS011;6899;51.546;6.912;2022-11-25T14:50:51;10.93;;;4.47;;
13651;SDS011;6899;51.546;6.912;2022-11-25T14:53:19;8.55;;;3.72;;
13651;SDS011;6899;51.546;6.912;2022-11-25T14:55:46;13.55;;;4.43;;
13651;SDS011;6899;51.546;6.912;2022-11-25T14:58:17;11.52;;;4.00;;
13651;SDS011;6899;51.546;6.912;2022-11-25T15:00:54;14.77;;;4.35;;
13651;SDS011;6899;51.546;6.912;2022-11-25T15:03:26;16.27;;;3.80;;
13651;SDS011;6899;51.546;6.912;2022-11-25T15:05:54;9.52;;;2.97;;
13651;SDS011;6899;51.546;6.912;2022-11-25T15:08:23;8.50;;;2.92;;
13651;SDS011;6899;51.546;6.912;2022-11-25T15:10:52;10.10;;;3.40;;
13651;SDS011;6899;51.546;6.912;2022-11-25T15:13:23;8.90;;;3.35;;
13651;SDS011;6899;51.546;6.912;2022-11-25T15:16:03;13.63;;;5.57;;
13651;SDS011;6899;51.546;6.912;2022-11-25T15:18:34;13.15;;;3.92;;
13651;SDS011;6899;51.546;6.912;2022-11-25T15:21:03;10.70;;;4.05;;
13651;SDS011;6899;51.546;6.912;2022-11-25T15:23:31;9.23;;;4.18;;
13651;SDS011;6899;51.546;6.912;2022-11-25T15:26:03;11.13;;;3.60;;